Aérodrome :
LOGIN :

S'inscrire | Disclaimer

   EN    FR    IT 

 










Légende :    VFR   VFR Marginal   IFR   IFR Intensif   IFR Très Intensif
Visi : 
Plafond : 
>= 8 km
>= 3000ft
5 à 8 km
1000 à 3000 ft
1500m à 5 km
500 à 1000 ft
800 à 1500m
200 à 500 ft
< 800m
< 200 ft
Symboles :   Orages  Brouillard  Fortes neiges  Fortes précipitations  Vent > 20 kt
SIGMETs :   Divers  Orages  Givrage  Turbulence  Onde Orograph.  Cendres Volcan.







- Altitude de l'aérodrome : 256 ft
- Code IATA : CFR
- Voir les cartes d'approche


LFRK - Caen

DERNIER METAR :
  • 211300Z AUTO 35008KT 300V030 9999 FEW027 BKN076 22/15 Q1015 NOSIG

METARs EXPIRÉS :
  • 211230Z AUTO 34010KT 300V360 9999 FEW024 BKN074 22/15 Q1015 NOSIG
  • 211200Z AUTO 36008KT 310V030 9999 SCT023 SCT034 OVC076 22/15 Q1015 NOSIG
  • 211130Z AUTO 33007KT 280V040 9999 BKN024 BKN032 23/16 Q1015 NOSIG
  • 211100Z AUTO 32006KT 290V360 9999 BKN023 BKN029 BKN035 22/15 Q1014
  • 211030Z AUTO 32008KT 280V350 9000 BKN022 BKN028 22/15 Q1014

TAF TAF LFRK
Valide du 21 à 12h jusqu'au 21 à 21h UTC


211100Z 2112/2121 35008KT 9999 SCT040
PROB30
TEMPO 2112/2115 -SHRA BKN025
Météo : +33 2 31 26 68 11
Pas de NOTAMs connus pour ce terrain.
1 SIGMET publié pour la FIR Brest (LFRR) :
 
Orages noyés dans la masse
LFRR SIGMET 1 VALID 211215/211400 LFPW
LFRR BREST FIR/UIR EMBD TS OBS AT 1215Z WI N4515 W00515 - N4545 W00515 - N4600 W00400 - N4515 W00400 - N4515 W00515 TOP FL310 MOV S 15KT NC=



MET'MAP, la Météo Aéronautique d'un coup d'oeil ! - Copyright ORBIFLY Décembre 2007 - Disclaimer

ORBIFLY MET'MAP TEAM :

Programmation & Développement : Alexandra Zaïnal
Conception & Développement : Baudouin d'Aumeries
Co-Programmation & Développement : Marc-Olivier Méhu
Soutien technique & logistique : Manuel Goepfert

Contact : metmap@orbifly.com




SOURCES & CREDITS :

   NOAA